KTIX/TIX METAR and TAF weather

Enter ICAO airport designator
Station Type Date Time Source
KTIX METAR 2020/01/23 17:47 UTC NOAA

KTIX 231747Z 09005KT 2SM BR SCT020 BKN060 A3010


Station Type Date Time Source
KTIX Decoded METAR 2020/01/23 17:47 UTC NOAA

Titusville, FL, United States (KTIX) 28-31N 080-48W
Jan 23, 2020 - 12:47 PM EST / 2020.01.23 1747 UTC
Wind: from the E (090 degrees) at 6 MPH (5 KT):0
Visibility: 2 mile(s):0
Sky conditions: mostly cloudy
Weather: mist
Pressure (altimeter): 30.1 in. Hg (1019 hPa)
ob: KTIX 231747Z 09005KT 2SM BR SCT020 BKN060 A3010
cycle: 18

Station Type Date Time Source
KTIX TAF 2020/01/23 18:22 UTC NOAA

TAF KTIX 231720Z 2318/2418 06011KT P6SM VCSH BKN035 BKN050
TEMPO 2318/2320 4SM SHRA
FM240000 09007KT P6SM SCT025 BKN050
FM241500 19006KT P6SM SCT040 BKN250

Example: see airport list